Terminal Aerodrome Forecast
Issued by NWS

Home | Current Version | Previous Version | Text Only | Print | Product List | Glossary On
Versions: 1 2 3 4 5 6 7 8 9 10 11
341
FTUS44 KTSA 071120
TAFXNA
TAF
KXNA 071120Z 0712/0812 21006KT P6SM SKC
     FM071600 24010KT P6SM SCT250
     FM072000 28012G20KT P6SM SCT250
     FM080100 30012KT P6SM SCT250=

USA.gov is the U.S. government's official web portal to all federal, state and local government web resources and services.